LFTW/FNI METAR and TAF weather

Enter ICAO airport designator
Station Type Date Time Source
LFTW METAR 2023/02/05 23:00 UTC NOAA

LFTW 052300Z AUTO 35020G32KT CAVOK 08/M01 Q1028


Station Type Date Time Source
LFTW Decoded METAR 2023/02/05 23:00 UTC NOAA

Nimes / Garons, France (LFTW) 43-45N 004-25E 96M
Feb 05, 2023 - 06:00 PM EST / 2023.02.05 2300 UTC
Wind: from the N (350 degrees) at 23 MPH (20 KT) gusting to 37 MPH (32 KT):0
Visibility: greater than 7 mile(s):0
Temperature: 46 F (8 C)
Dew Point: 30 F (-1 C)
Relative Humidity: 52%
Pressure (altimeter): 30.36 in. Hg (1028 hPa)
ob: LFTW 052300Z AUTO 35020G32KT CAVOK 08/M01 Q1028
cycle: 23

Station Type Date Time Source
LFTW TAF 2023/02/05 19:11 UTC NOAA

TAF LFTW 051904Z 0519/0615 CNL

Example: see airport list